Terminal Aerodrome Forecast
Issued by NWS

Home | Current Version | Previous Version | Text Only | Print | Product List | Glossary On
Versions: 1 2 3 4 5 6 7 8 9 10 11 12 13 14 15 16 17 18 19 20
000
FTUS41 KPBZ 060858 AAA
TAFHLG
TAF AMD
KHLG 060858Z 0609/0706 00000KT 2SM BR SKC
      TEMPO 0609/0612 1/4SM FG VV001
     FM061200 VRB04KT 5SM BR SKC
     FM061300 VRB03KT P6SM BKN080=

USA.gov is the U.S. government's official web portal to all federal, state and local government web resources and services.